createdAt,value
2022-09-28T00:00:01.199Z,2.80
2022-09-28T00:00:17.876Z,2.53
2022-09-28T00:00:34.372Z,2.80
2022-09-28T00:00:51.887Z,3.22
2022-09-28T00:01:09.164Z,3.75
2022-09-28T00:01:26.126Z,3.35
2022-09-28T00:01:42.736Z,4.03
2022-09-28T00:01:59.369Z,4.25
2022-09-28T00:02:16.188Z,3.53
2022-09-28T00:02:34.802Z,4.02
2022-09-28T00:02:52.283Z,3.67
2022-09-28T00:03:09.212Z,3.40
2022-09-28T00:03:25.757Z,4.28
2022-09-28T00:03:42.262Z,4.40
2022-09-28T00:03:59.002Z,3.20
2022-09-28T00:04:16.457Z,2.97
2022-09-28T00:04:33.407Z,3.28
2022-09-28T00:04:49.903Z,3.90
2022-09-28T00:05:06.801Z,3.63
2022-09-28T00:05:23.487Z,3.20
2022-09-28T00:05:41.033Z,3.35
2022-09-28T00:06:00.752Z,3.35
2022-09-28T00:06:18.538Z,4.25
2022-09-28T00:06:35.043Z,3.10
2022-09-28T00:06:51.556Z,2.92
2022-09-28T00:07:09.315Z,3.25
2022-09-28T00:07:25.917Z,2.92
2022-09-28T00:07:42.582Z,3.22
2022-09-28T00:07:59.081Z,3.65
2022-09-28T00:08:15.617Z,4.05
2022-09-28T00:08:33.107Z,3.58
2022-09-28T00:08:50.080Z,3.83
2022-09-28T00:09:06.621Z,3.53
2022-09-28T00:09:23.123Z,3.58
2022-09-28T00:09:39.602Z,3.10
2022-09-28T00:09:57.098Z,3.75
2022-09-28T00:10:13.579Z,4.32
2022-09-28T00:10:30.131Z,2.88
2022-09-28T00:10:55.970Z,3.13
2022-09-28T00:11:13.697Z,5.35
2022-09-28T00:11:31.239Z,4.30
2022-09-28T00:11:47.721Z,3.15
2022-09-28T00:12:04.426Z,3.28
2022-09-28T00:12:22.301Z,3.35
2022-09-28T00:12:39.437Z,2.67
2022-09-28T00:12:56.891Z,4.75
2022-09-28T00:13:13.388Z,4.43
2022-09-28T00:13:30.970Z,3.60
2022-09-28T00:13:49.045Z,3.28
2022-09-28T00:14:07.530Z,4.05
2022-09-28T00:14:24.498Z,4.18
2022-09-28T00:14:42.553Z,4.00
2022-09-28T00:14:59.043Z,3.40
2022-09-28T00:15:16.638Z,3.30
2022-09-28T00:15:33.269Z,4.55
2022-09-28T00:15:58.331Z,3.65
2022-09-28T00:16:16.694Z,2.60
2022-09-28T00:16:34.953Z,2.88
2022-09-28T00:16:52.556Z,2.72
2022-09-28T00:17:09.096Z,2.88
2022-09-28T00:17:26.449Z,2.92
2022-09-28T00:17:44.647Z,4.75
2022-09-28T00:18:01.292Z,4.10
2022-09-28T00:18:17.807Z,3.70
2022-09-28T00:18:36.032Z,3.33
2022-09-28T00:18:53.080Z,3.50
2022-09-28T00:19:10.577Z,3.97
2022-09-28T00:19:27.182Z,3.63
2022-09-28T00:19:45.083Z,2.64
2022-09-28T00:20:05.510Z,3.13
2022-09-28T00:20:22.716Z,3.33
2022-09-28T00:20:39.221Z,3.88
2022-09-28T00:21:02.619Z,3.53
2022-09-28T00:21:19.723Z,3.25
2022-09-28T00:21:38.066Z,3.75
2022-09-28T00:21:54.527Z,3.75
2022-09-28T00:22:11.033Z,3.25
2022-09-28T00:22:28.212Z,3.15
2022-09-28T00:22:44.693Z,3.10
2022-09-28T00:23:01.192Z,3.08
2022-09-28T00:23:17.669Z,3.10
2022-09-28T00:23:55.925Z,2.78
2022-09-28T00:24:17.765Z,3.22
2022-09-28T00:24:34.247Z,4.00
2022-09-28T00:24:50.722Z,4.38
2022-09-28T00:25:08.697Z,4.43
2022-09-28T00:25:25.277Z,3.65
2022-09-28T00:25:41.763Z,3.30
2022-09-28T00:26:02.967Z,3.50
2022-09-28T00:26:19.453Z,3.78
2022-09-28T00:26:36.310Z,3.35
2022-09-28T00:26:54.797Z,2.92
2022-09-28T00:27:11.298Z,2.95
2022-09-28T00:27:27.785Z,3.08
2022-09-28T00:27:49.388Z,2.92
2022-09-28T00:28:06.391Z,3.05
2022-09-28T00:28:22.940Z,2.65
2022-09-28T00:28:40.447Z,3.17
2022-09-28T00:28:58.447Z,4.13
2022-09-28T00:29:22.734Z,3.92
2022-09-28T00:29:39.221Z,3.15
2022-09-28T00:29:56.993Z,5.30
2022-09-28T00:30:16.337Z,5.38
2022-09-28T00:30:34.645Z,3.47
2022-09-28T00:30:54.832Z,2.70
2022-09-28T00:31:11.366Z,3.22
2022-09-28T00:31:30.163Z,3.25
2022-09-28T00:31:48.183Z,2.63
2022-09-28T00:32:05.858Z,3.20
2022-09-28T00:32:24.600Z,3.90
2022-09-28T00:32:41.177Z,3.58
2022-09-28T00:33:00.278Z,3.20
2022-09-28T00:33:16.779Z,4.10
2022-09-28T00:33:33.251Z,3.83
2022-09-28T00:33:50.090Z,3.22
2022-09-28T00:34:06.599Z,3.85
2022-09-28T00:34:25.318Z,4.15
2022-09-28T00:34:45.698Z,3.15
2022-09-28T00:35:02.223Z,4.43
2022-09-28T00:35:18.758Z,4.53
2022-09-28T00:35:35.227Z,2.75
2022-09-28T00:35:56.029Z,4.15
2022-09-28T00:36:12.503Z,4.57
2022-09-28T00:36:29.627Z,3.83
2022-09-28T00:36:46.686Z,3.38
2022-09-28T00:37:04.211Z,3.30
2022-09-28T00:37:21.690Z,3.58
2022-09-28T00:37:38.178Z,4.28
2022-09-28T00:37:54.667Z,3.60
2022-09-28T00:38:11.193Z,3.08
2022-09-28T00:38:28.377Z,2.85
2022-09-28T00:38:44.950Z,3.65
2022-09-28T00:39:03.986Z,4.05
2022-09-28T00:39:21.455Z,4.07
2022-09-28T00:39:38.437Z,4.18
2022-09-28T00:39:55.380Z,3.92
2022-09-28T00:40:11.966Z,3.50
2022-09-28T00:40:28.474Z,4.20
2022-09-28T00:40:45.067Z,3.65
2022-09-28T00:41:05.383Z,3.00
2022-09-28T00:41:22.006Z,3.35
2022-09-28T00:41:38.579Z,3.58
2022-09-28T00:41:55.069Z,3.75
2022-09-28T00:42:13.508Z,3.85
2022-09-28T00:42:31.008Z,4.35
2022-09-28T00:42:47.489Z,6.10
2022-09-28T00:43:16.876Z,5.60
2022-09-28T00:43:33.451Z,4.18
2022-09-28T00:43:51.092Z,3.25
2022-09-28T00:44:26.290Z,3.08
2022-09-28T00:44:45.283Z,4.15
2022-09-28T00:45:01.797Z,3.00
2022-09-28T00:45:18.401Z,2.65
2022-09-28T00:45:34.953Z,3.38
2022-09-28T00:45:55.227Z,3.60
2022-09-28T00:46:15.021Z,4.82
2022-09-28T00:46:32.859Z,3.22
2022-09-28T00:46:49.731Z,3.10
2022-09-28T00:47:19.766Z,4.00
2022-09-28T00:47:40.887Z,2.97
2022-09-28T00:47:58.785Z,3.25
2022-09-28T00:48:15.292Z,3.65
2022-09-28T00:48:34.051Z,3.42
2022-09-28T00:48:52.974Z,2.95
2022-09-28T00:49:12.232Z,3.00
2022-09-28T00:49:31.192Z,3.40
2022-09-28T00:49:51.438Z,3.88
2022-09-28T00:50:11.287Z,3.97
2022-09-28T00:50:29.206Z,3.40
2022-09-28T00:50:47.118Z,3.50
2022-09-28T00:51:05.696Z,3.50
2022-09-28T00:51:23.650Z,3.28
2022-09-28T00:51:41.947Z,3.63
2022-09-28T00:51:58.503Z,3.92
2022-09-28T00:52:17.920Z,3.60
2022-09-28T00:52:37.475Z,3.88
2022-09-28T00:52:55.434Z,3.65
2022-09-28T00:53:14.526Z,3.88
2022-09-28T00:53:32.442Z,4.15
2022-09-28T00:53:49.343Z,4.60
2022-09-28T00:54:08.331Z,4.10
2022-09-28T00:54:24.893Z,3.60
2022-09-28T00:54:42.469Z,3.67
2022-09-28T00:55:01.136Z,3.83
2022-09-28T00:55:21.032Z,4.13
2022-09-28T00:55:39.583Z,3.75
2022-09-28T00:55:58.388Z,3.47
2022-09-28T00:56:19.066Z,3.40
2022-09-28T00:56:36.540Z,3.42
2022-09-28T00:56:53.041Z,3.48
2022-09-28T00:57:09.611Z,3.58
2022-09-28T00:57:26.201Z,4.07
2022-09-28T00:57:45.146Z,5.03
2022-09-28T00:58:03.699Z,4.95
2022-09-28T00:58:21.848Z,4.38
2022-09-28T00:58:39.976Z,3.75
2022-09-28T00:58:57.246Z,3.95
2022-09-28T00:59:14.378Z,4.05
2022-09-28T00:59:32.449Z,3.85
2022-09-28T00:59:49.584Z,3.65
2022-09-28T01:00:06.787Z,5.07
2022-09-28T01:00:23.838Z,5.55
2022-09-28T01:00:41.977Z,4.57
2022-09-28T01:00:59.628Z,4.80
2022-09-28T01:01:16.423Z,4.32
2022-09-28T01:01:33.015Z,4.03
2022-09-28T01:01:50.045Z,4.93
2022-09-28T01:02:07.218Z,4.54
2022-09-28T01:02:24.986Z,3.40
2022-09-28T01:02:42.242Z,4.05
2022-09-28T01:02:59.572Z,4.65
2022-09-28T01:03:16.378Z,4.47
2022-09-28T01:03:33.665Z,3.28
2022-09-28T01:03:51.339Z,3.35
2022-09-28T01:04:07.871Z,3.78
2022-09-28T01:04:29.215Z,4.00
2022-09-28T01:04:47.300Z,3.72
2022-09-28T01:05:05.276Z,4.47
2022-09-28T01:05:24.176Z,4.53
2022-09-28T01:05:40.682Z,3.97
2022-09-28T01:05:58.417Z,3.95
2022-09-28T01:06:17.993Z,4.38
2022-09-28T01:06:35.964Z,4.47
2022-09-28T01:06:52.628Z,4.78
2022-09-28T01:07:10.856Z,5.15
2022-09-28T01:07:27.680Z,4.97
2022-09-28T01:07:45.596Z,4.88
2022-09-28T01:08:02.287Z,5.18
2022-09-28T01:08:21.049Z,5.90
2022-09-28T01:08:39.121Z,4.95
2022-09-28T01:08:58.200Z,6.63
2022-09-28T01:09:15.214Z,6.63
2022-09-28T01:09:32.474Z,4.03
2022-09-28T01:09:49.849Z,4.38
2022-09-28T01:10:07.397Z,4.03
2022-09-28T01:10:25.171Z,3.97
2022-09-28T01:10:43.714Z,4.20
2022-09-28T01:11:00.469Z,5.03
2022-09-28T01:11:19.475Z,4.88
2022-09-28T01:11:37.710Z,4.78
2022-09-28T01:11:55.155Z,4.13
2022-09-28T01:12:12.974Z,5.15
2022-09-28T01:12:29.536Z,5.07
2022-09-28T01:12:46.087Z,4.22
2022-09-28T01:13:02.775Z,4.32
2022-09-28T01:13:20.674Z,4.45
2022-09-28T01:13:37.698Z,4.28
2022-09-28T01:13:56.625Z,4.05
2022-09-28T01:14:15.184Z,4.22
2022-09-28T01:14:31.726Z,3.92
2022-09-28T01:14:49.276Z,4.57
2022-09-28T01:15:07.141Z,4.25
2022-09-28T01:15:25.523Z,4.72
2022-09-28T01:15:46.044Z,4.57
2022-09-28T01:16:08.116Z,4.13
2022-09-28T01:16:30.781Z,4.70
2022-09-28T01:16:58.802Z,5.00
2022-09-28T01:17:26.588Z,4.43
2022-09-28T01:17:53.445Z,4.70
2022-09-28T01:18:15.301Z,3.72
2022-09-28T01:18:37.049Z,4.45
2022-09-28T01:18:57.838Z,5.22
2022-09-28T01:19:24.438Z,4.95
2022-09-28T01:19:56.994Z,4.68
2022-09-28T01:20:44.443Z,5.53
2022-09-28T01:21:02.973Z,4.50
2022-09-28T01:21:20.585Z,4.80
2022-09-28T01:21:44.399Z,4.20
2022-09-28T01:22:11.084Z,4.53
2022-09-28T01:22:31.631Z,4.45
2022-09-28T01:23:06.413Z,4.28
2022-09-28T01:23:44.034Z,3.58
2022-09-28T01:24:09.634Z,4.50
2022-09-28T01:24:39.674Z,4.30
2022-09-28T01:25:00.182Z,4.15
2022-09-28T01:25:23.644Z,4.88
2022-09-28T01:25:41.424Z,4.57
2022-09-28T01:26:02.533Z,3.78
2022-09-28T01:26:35.925Z,4.05
2022-09-28T01:26:58.936Z,3.47
2022-09-28T01:27:18.025Z,4.05
2022-09-28T01:27:37.477Z,5.97
2022-09-28T01:27:55.981Z,5.22
2022-09-28T01:28:13.677Z,5.95
2022-09-28T01:28:30.707Z,4.82
2022-09-28T01:28:48.738Z,4.28
2022-09-28T01:29:08.800Z,5.18
2022-09-28T01:29:38.935Z,3.58
2022-09-28T01:30:01.277Z,4.25
2022-09-28T01:30:18.972Z,4.10
2022-09-28T01:30:38.202Z,6.78
2022-09-28T01:31:03.199Z,6.93
2022-09-28T01:31:21.584Z,5.22
2022-09-28T01:31:40.887Z,5.10
2022-09-28T01:32:01.792Z,5.57
2022-09-28T01:32:25.786Z,6.07
2022-09-28T01:32:47.871Z,4.50
2022-09-28T01:33:06.765Z,5.05
2022-09-28T01:33:24.665Z,4.70
2022-09-28T01:33:44.809Z,3.97
2022-09-28T01:34:04.274Z,4.28
2022-09-28T01:34:23.913Z,7.93
2022-09-28T01:34:43.809Z,7.78
2022-09-28T01:35:06.527Z,4.28
2022-09-28T01:35:26.625Z,6.10
2022-09-28T01:35:47.669Z,5.22
2022-09-28T01:36:06.706Z,4.85
2022-09-28T01:36:25.381Z,4.93
2022-09-28T01:36:43.733Z,3.67
2022-09-28T01:37:03.715Z,4.53
2022-09-28T01:37:21.520Z,3.88
2022-09-28T01:37:42.254Z,3.83
2022-09-28T01:38:01.534Z,4.65
2022-09-28T01:38:22.194Z,4.18
2022-09-28T01:38:41.640Z,5.05
2022-09-28T01:39:01.695Z,5.80
2022-09-28T01:39:20.927Z,6.18
2022-09-28T01:39:41.100Z,5.20
2022-09-28T01:39:58.489Z,4.50
2022-09-28T01:40:15.901Z,4.55
2022-09-28T01:40:32.684Z,4.35
2022-09-28T01:40:51.062Z,3.70
2022-09-28T01:41:10.109Z,4.68
2022-09-28T01:41:28.724Z,5.20
2022-09-28T01:41:49.289Z,4.40
2022-09-28T01:42:08.283Z,6.07
2022-09-28T01:42:26.627Z,5.90
2022-09-28T01:42:45.835Z,4.80
2022-09-28T01:43:04.162Z,4.43
2022-09-28T01:43:22.428Z,4.63
2022-09-28T01:43:40.359Z,5.38
2022-09-28T01:43:57.514Z,3.58
2022-09-28T01:44:15.939Z,3.90
2022-09-28T01:44:39.645Z,4.63
2022-09-28T01:45:00.743Z,5.95
2022-09-28T01:45:20.296Z,5.43
2022-09-28T01:45:40.576Z,6.40
2022-09-28T01:46:02.924Z,4.20
2022-09-28T01:46:21.697Z,4.32
2022-09-28T01:46:41.257Z,4.07
2022-09-28T01:47:03.478Z,4.78
2022-09-28T01:47:21.130Z,5.28
2022-09-28T01:47:40.265Z,5.13
2022-09-28T01:48:02.075Z,5.68
2022-09-28T01:48:21.405Z,4.10
2022-09-28T01:48:39.817Z,5.28
2022-09-28T01:48:57.418Z,4.13
2022-09-28T01:49:17.129Z,4.57
2022-09-28T01:49:36.882Z,7.70
2022-09-28T01:49:58.445Z,6.57
2022-09-28T01:50:16.776Z,7.60
2022-09-28T01:50:35.216Z,5.72
2022-09-28T01:50:56.079Z,5.80
2022-09-28T01:51:16.145Z,5.50
2022-09-28T01:51:36.438Z,4.64
2022-09-28T01:51:55.730Z,4.88
2022-09-28T01:52:16.045Z,4.70
2022-09-28T01:52:36.257Z,4.25
2022-09-28T01:52:54.829Z,3.90
2022-09-28T01:53:13.701Z,3.92
2022-09-28T01:53:33.456Z,4.15
2022-09-28T01:53:54.047Z,4.95
2022-09-28T01:54:18.726Z,4.25
2022-09-28T01:54:41.412Z,4.18
2022-09-28T01:55:00.245Z,4.65
2022-09-28T01:55:19.377Z,4.45
2022-09-28T01:55:38.754Z,5.55
2022-09-28T01:55:59.954Z,5.40
2022-09-28T01:56:19.861Z,3.50
2022-09-28T01:56:39.150Z,3.85
2022-09-28T01:56:58.816Z,4.90
2022-09-28T01:57:17.689Z,4.20
2022-09-28T01:57:37.853Z,3.72
2022-09-28T01:57:56.509Z,5.00
2022-09-28T01:58:15.484Z,4.28
2022-09-28T01:58:34.290Z,4.88
2022-09-28T01:58:53.180Z,4.32
2022-09-28T01:59:13.518Z,4.00
2022-09-28T01:59:32.755Z,4.75
2022-09-28T01:59:53.594Z,4.57
2022-09-28T02:00:38.965Z,5.20
2022-09-28T02:00:59.442Z,5.28
2022-09-28T02:01:18.515Z,4.38
2022-09-28T02:01:37.907Z,4.15
2022-09-28T02:01:58.643Z,4.35
2022-09-28T02:02:18.599Z,4.18
2022-09-28T02:02:38.284Z,7.82
2022-09-28T02:02:57.309Z,7.88
2022-09-28T02:03:25.303Z,5.45
2022-09-28T02:03:54.364Z,5.00
2022-09-28T02:04:12.965Z,6.38
2022-09-28T02:04:34.966Z,7.20
2022-09-28T02:04:54.023Z,5.25
2022-09-28T02:05:12.975Z,5.43
2022-09-28T02:05:32.039Z,6.20
2022-09-28T02:05:50.548Z,5.57
2022-09-28T02:06:09.232Z,5.63
2022-09-28T02:06:27.910Z,7.15
2022-09-28T02:06:46.916Z,5.63
2022-09-28T02:07:07.543Z,4.97
2022-09-28T02:07:26.360Z,5.88
2022-09-28T02:07:45.248Z,8.02
2022-09-28T02:08:03.551Z,7.63
2022-09-28T02:08:21.326Z,6.28
2022-09-28T02:08:44.320Z,7.78
2022-09-28T02:09:04.729Z,5.57
2022-09-28T02:09:33.878Z,6.10
2022-09-28T02:09:55.161Z,5.75
2022-09-28T02:10:13.664Z,5.90
2022-09-28T02:10:33.511Z,6.60
2022-09-28T02:10:52.442Z,6.60
2022-09-28T02:11:11.166Z,6.97
2022-09-28T02:11:28.490Z,4.13
2022-09-28T02:11:47.512Z,5.97
2022-09-28T02:12:12.494Z,8.23
2022-09-28T02:12:33.600Z,5.78
2022-09-28T02:12:51.383Z,4.32
2022-09-28T02:13:11.165Z,4.63
2022-09-28T02:13:30.397Z,4.50
2022-09-28T02:13:50.084Z,6.10
2022-09-28T02:14:08.269Z,4.20
2022-09-28T02:14:25.408Z,4.88
2022-09-28T02:14:43.959Z,5.93
2022-09-28T02:15:06.487Z,5.35
2022-09-28T02:15:27.765Z,5.47
2022-09-28T02:15:47.001Z,5.32
2022-09-28T02:16:05.614Z,4.93
2022-09-28T02:16:25.577Z,5.20
2022-09-28T02:16:43.279Z,4.05
2022-09-28T02:17:01.979Z,3.70
2022-09-28T02:17:20.971Z,5.13
2022-09-28T02:17:38.246Z,5.63
2022-09-28T02:17:54.736Z,5.70
2022-09-28T02:18:11.466Z,6.22
2022-09-28T02:18:29.256Z,8.23
2022-09-28T02:18:46.049Z,7.70
2022-09-28T02:19:05.277Z,5.63
2022-09-28T02:19:25.800Z,5.22
2022-09-28T02:19:42.788Z,5.22
2022-09-28T02:19:59.416Z,6.40
2022-09-28T02:20:17.255Z,6.18
2022-09-28T02:20:36.264Z,5.55
2022-09-28T02:20:55.822Z,5.38
2022-09-28T02:21:15.252Z,5.38
2022-09-28T02:21:34.128Z,4.28
2022-09-28T02:21:55.332Z,4.25
2022-09-28T02:22:23.122Z,5.18
2022-09-28T02:22:43.745Z,4.85
2022-09-28T02:23:01.892Z,4.95
2022-09-28T02:23:21.234Z,4.05
2022-09-28T02:23:39.876Z,4.18
2022-09-28T02:23:57.824Z,4.75
2022-09-28T02:24:21.264Z,6.22
2022-09-28T02:24:39.668Z,6.40
2022-09-28T02:25:00.402Z,5.72
2022-09-28T02:25:22.968Z,5.70
2022-09-28T02:25:40.315Z,5.32
2022-09-28T02:26:01.216Z,5.82
2022-09-28T02:26:20.522Z,5.07
2022-09-28T02:26:39.930Z,4.53
2022-09-28T02:26:59.439Z,4.68
2022-09-28T02:27:28.674Z,5.20
2022-09-28T02:27:52.187Z,7.08
2022-09-28T02:28:10.443Z,8.18
2022-09-28T02:28:27.060Z,7.55
2022-09-28T02:28:43.575Z,5.00
2022-09-28T02:29:00.141Z,4.43
2022-09-28T02:29:18.100Z,4.72
2022-09-28T02:29:34.706Z,5.90
2022-09-28T02:29:51.216Z,5.78
2022-09-28T02:30:08.430Z,4.57
2022-09-28T02:30:25.039Z,3.85
2022-09-28T02:30:43.424Z,4.55
2022-09-28T02:31:00.599Z,4.88
2022-09-28T02:31:17.129Z,5.65
2022-09-28T02:31:34.043Z,5.38
2022-09-28T02:31:51.548Z,5.05
2022-09-28T02:32:08.322Z,4.38
2022-09-28T02:32:27.180Z,3.58
2022-09-28T02:32:46.672Z,3.97
2022-09-28T02:33:05.521Z,4.63
2022-09-28T02:33:24.507Z,5.15
2022-09-28T02:33:43.177Z,6.78
2022-09-28T02:33:59.850Z,5.57
2022-09-28T02:34:16.431Z,5.60
2022-09-28T02:34:33.323Z,5.75
2022-09-28T02:34:50.787Z,5.28
2022-09-28T02:35:08.520Z,6.35
2022-09-28T02:35:25.240Z,6.07
2022-09-28T02:35:42.373Z,5.05
2022-09-28T02:35:59.905Z,4.57
2022-09-28T02:36:18.752Z,4.72
2022-09-28T02:36:35.808Z,5.53
2022-09-28T02:36:52.438Z,6.75
2022-09-28T02:37:08.962Z,6.88
2022-09-28T02:37:25.549Z,5.40
2022-09-28T02:37:42.229Z,5.95
2022-09-28T02:37:59.727Z,7.43
2022-09-28T02:38:16.267Z,6.38
2022-09-28T02:38:33.044Z,5.57
2022-09-28T02:38:49.529Z,6.55
2022-09-28T02:39:06.653Z,6.43
2022-09-28T02:39:23.272Z,5.85
2022-09-28T02:39:40.755Z,5.30
2022-09-28T02:39:57.270Z,4.85
2022-09-28T02:40:15.251Z,4.75
2022-09-28T02:40:34.179Z,5.28
2022-09-28T02:41:03.749Z,6.48
2022-09-28T02:41:26.516Z,4.40
2022-09-28T02:41:51.866Z,5.15
2022-09-28T02:42:14.819Z,6.65
2022-09-28T02:42:36.477Z,6.68
2022-09-28T02:42:57.667Z,6.80
2022-09-28T02:43:16.032Z,6.18
2022-09-28T02:43:36.897Z,5.97
2022-09-28T02:43:58.163Z,6.88
2022-09-28T02:44:22.751Z,5.38
2022-09-28T02:44:45.293Z,6.43
2022-09-28T02:45:09.143Z,6.07
2022-09-28T02:45:34.541Z,6.40
2022-09-28T02:45:56.314Z,5.65
2022-09-28T02:46:19.909Z,7.35
2022-09-28T02:46:44.388Z,5.45
2022-09-28T02:47:15.911Z,5.85
2022-09-28T02:47:40.154Z,5.10
2022-09-28T02:48:04.897Z,6.07
2022-09-28T02:48:42.636Z,7.30
2022-09-28T02:49:24.350Z,6.32
2022-09-28T02:49:48.505Z,5.25
2022-09-28T02:50:11.018Z,6.13
2022-09-28T02:50:35.367Z,4.85
2022-09-28T02:50:58.451Z,6.22
2022-09-28T02:51:20.445Z,5.97
2022-09-28T02:51:41.552Z,5.55
2022-09-28T02:52:13.668Z,5.70
2022-09-28T02:52:40.817Z,7.93
2022-09-28T02:53:12.247Z,7.45
2022-09-28T02:53:42.011Z,7.30
2022-09-28T02:54:19.328Z,5.70
2022-09-28T02:54:53.531Z,5.75
2022-09-28T02:55:19.751Z,5.65
2022-09-28T02:55:43.845Z,4.82
2022-09-28T02:56:11.116Z,5.63
2022-09-28T02:56:36.287Z,5.25
2022-09-28T02:57:00.172Z,5.03
2022-09-28T02:57:24.877Z,5.78
2022-09-28T02:57:48.324Z,5.68
2022-09-28T02:58:17.033Z,6.63
2022-09-28T02:58:36.340Z,5.15
2022-09-28T02:58:56.013Z,5.65
2022-09-28T02:59:18.462Z,5.70
2022-09-28T02:59:46.340Z,6.43
2022-09-28T03:00:06.356Z,5.82
2022-09-28T03:00:23.618Z,5.78
2022-09-28T03:00:43.919Z,5.35
2022-09-28T03:01:04.383Z,5.32
2022-09-28T03:01:26.987Z,7.25
2022-09-28T03:01:51.775Z,6.65
2022-09-28T03:02:12.805Z,7.47
2022-09-28T03:02:31.594Z,6.52
2022-09-28T03:02:53.017Z,6.53
2022-09-28T03:03:13.659Z,5.80
2022-09-28T03:03:35.277Z,5.97
2022-09-28T03:03:55.403Z,7.50
2022-09-28T03:04:18.046Z,6.03
2022-09-28T03:04:37.726Z,5.80
2022-09-28T03:05:10.711Z,7.10
2022-09-28T03:05:31.812Z,5.80
2022-09-28T03:05:53.206Z,4.93
2022-09-28T03:06:12.149Z,6.07
2022-09-28T03:06:40.888Z,5.35
2022-09-28T03:07:01.765Z,5.30
2022-09-28T03:07:22.893Z,6.70
2022-09-28T03:07:41.597Z,6.03
2022-09-28T03:07:59.706Z,6.35
2022-09-28T03:08:20.164Z,6.13
2022-09-28T03:08:40.326Z,5.90
2022-09-28T03:09:01.209Z,8.43
2022-09-28T03:09:23.131Z,6.20
2022-09-28T03:09:42.415Z,7.63
2022-09-28T03:10:01.554Z,8.40
2022-09-28T03:10:24.278Z,6.35
2022-09-28T03:10:43.270Z,6.60
2022-09-28T03:11:01.061Z,6.28
2022-09-28T03:11:19.449Z,6.28
2022-09-28T03:11:42.895Z,5.22
2022-09-28T03:12:02.088Z,5.22
2022-09-28T03:12:20.782Z,4.75
2022-09-28T03:12:37.851Z,4.95
2022-09-28T03:12:56.778Z,5.85
2022-09-28T03:13:14.757Z,5.78
2022-09-28T03:13:31.800Z,6.13
2022-09-28T03:13:49.426Z,6.57
2022-09-28T03:14:06.947Z,7.65
2022-09-28T03:14:32.318Z,7.60
2022-09-28T03:15:06.342Z,7.70
2022-09-28T03:15:24.256Z,6.45
2022-09-28T03:15:45.261Z,6.95
2022-09-28T03:16:08.235Z,5.30
2022-09-28T03:16:27.399Z,4.68
2022-09-28T03:16:44.304Z,5.43
2022-09-28T03:17:00.920Z,5.32
2022-09-28T03:17:20.311Z,6.80
2022-09-28T03:17:37.073Z,6.70
2022-09-28T03:17:54.644Z,6.97
2022-09-28T03:18:11.242Z,5.80
2022-09-28T03:18:27.769Z,6.25
2022-09-28T03:18:44.903Z,6.97
2022-09-28T03:19:01.449Z,6.78
2022-09-28T03:19:21.068Z,7.63
2022-09-28T03:19:38.624Z,6.88
2022-09-28T03:19:55.161Z,10.27
2022-09-28T03:20:11.728Z,10.10
2022-09-28T03:20:29.388Z,5.25
2022-09-28T03:20:47.208Z,5.65
2022-09-28T03:21:04.480Z,6.78
2022-09-28T03:21:22.062Z,6.03
2022-09-28T03:21:38.546Z,8.27
2022-09-28T03:21:55.653Z,7.70
2022-09-28T03:22:12.162Z,5.00
2022-09-28T03:22:28.654Z,6.03
2022-09-28T03:23:00.243Z,5.97
2022-09-28T03:23:25.273Z,6.20
2022-09-28T03:23:42.470Z,6.10
2022-09-28T03:23:59.241Z,6.40
2022-09-28T03:24:16.698Z,6.72
2022-09-28T03:24:33.180Z,7.00
2022-09-28T03:24:49.697Z,6.95
2022-09-28T03:25:06.997Z,6.60
2022-09-28T03:25:24.873Z,5.93
2022-09-28T03:25:42.350Z,5.63
2022-09-28T03:25:59.469Z,6.97
2022-09-28T03:26:16.776Z,7.05
2022-09-28T03:26:33.378Z,5.43
2022-09-28T03:26:49.989Z,5.80
2022-09-28T03:27:07.526Z,6.20
2022-09-28T03:27:24.048Z,7.25
2022-09-28T03:27:40.816Z,7.82
2022-09-28T03:27:59.068Z,6.57
2022-09-28T03:28:17.166Z,6.07
2022-09-28T03:28:36.114Z,6.40
2022-09-28T03:28:53.661Z,5.82
2022-09-28T03:29:13.378Z,6.25
2022-09-28T03:29:32.885Z,6.68
2022-09-28T03:29:53.283Z,7.88
2022-09-28T03:30:10.782Z,7.57
2022-09-28T03:30:29.606Z,6.20
2022-09-28T03:30:46.092Z,5.50
2022-09-28T03:31:02.887Z,6.78
2022-09-28T03:31:19.618Z,7.10
2022-09-28T03:31:36.403Z,6.13
2022-09-28T03:31:54.134Z,5.85
2022-09-28T03:32:10.987Z,5.75
2022-09-28T03:32:27.556Z,6.10
2022-09-28T03:32:44.225Z,6.00
2022-09-28T03:33:02.428Z,5.15
2022-09-28T03:33:21.360Z,5.07
2022-09-28T03:33:38.926Z,5.22
2022-09-28T03:33:55.735Z,4.07
2022-09-28T03:34:12.292Z,4.32
2022-09-28T03:34:28.791Z,4.92
2022-09-28T03:34:45.273Z,5.45
2022-09-28T03:35:02.003Z,5.38
2022-09-28T03:35:19.554Z,6.38
2022-09-28T03:35:36.046Z,6.57
2022-09-28T03:35:53.331Z,6.43
2022-09-28T03:36:10.887Z,7.30
2022-09-28T03:36:27.981Z,5.68
2022-09-28T03:36:44.554Z,4.80
2022-09-28T03:37:01.401Z,5.93
2022-09-28T03:37:18.007Z,5.90
2022-09-28T03:37:34.895Z,5.68
2022-09-28T03:37:55.106Z,5.40
2022-09-28T03:38:11.833Z,6.15
2022-09-28T03:38:28.361Z,6.65
2022-09-28T03:38:44.999Z,6.75
2022-09-28T03:39:02.503Z,6.53
2022-09-28T03:39:19.062Z,7.28
2022-09-28T03:39:35.571Z,7.90
2022-09-28T03:39:52.105Z,6.70
2022-09-28T03:40:09.054Z,6.68
2022-09-28T03:40:25.887Z,5.47
2022-09-28T03:40:43.602Z,6.28
2022-09-28T03:41:00.416Z,5.88
2022-09-28T03:41:22.007Z,7.55
2022-09-28T03:41:39.570Z,7.03
2022-09-28T03:41:56.185Z,5.16
2022-09-28T03:42:12.804Z,5.28
2022-09-28T03:42:35.499Z,5.60
2022-09-28T03:42:53.951Z,6.22
2022-09-28T03:43:11.813Z,6.60
2022-09-28T03:43:29.853Z,6.78
2022-09-28T03:43:48.567Z,6.05
2022-09-28T03:44:06.135Z,5.42
2022-09-28T03:44:23.440Z,5.32
2022-09-28T03:44:40.090Z,5.68
2022-09-28T03:44:56.869Z,5.70
2022-09-28T03:45:13.399Z,6.05
2022-09-28T03:45:30.138Z,5.68
2022-09-28T03:45:52.223Z,4.93
2022-09-28T03:46:08.856Z,6.20
2022-09-28T03:46:30.606Z,6.72
2022-09-28T03:46:52.571Z,6.80
2022-09-28T03:47:10.093Z,6.60
2022-09-28T03:47:26.584Z,6.30
2022-09-28T03:47:45.229Z,6.82
2022-09-28T03:48:01.833Z,6.97
2022-09-28T03:48:25.020Z,6.10
2022-09-28T03:48:43.292Z,7.30
2022-09-28T03:49:01.649Z,6.95
2022-09-28T03:49:18.825Z,7.15
2022-09-28T03:49:35.337Z,6.88
2022-09-28T03:49:51.886Z,7.90
2022-09-28T03:50:08.897Z,7.72
2022-09-28T03:50:25.527Z,7.28
2022-09-28T03:50:43.072Z,7.22
2022-09-28T03:51:00.645Z,7.35
2022-09-28T03:51:17.473Z,8.68
2022-09-28T03:51:34.058Z,9.95
2022-09-28T03:51:51.535Z,10.27
2022-09-28T03:52:08.029Z,8.15
2022-09-28T03:52:24.545Z,6.18
2022-09-28T03:52:41.040Z,5.24
2022-09-28T03:53:02.194Z,5.35
2022-09-28T03:53:18.696Z,6.75
2022-09-28T03:53:36.634Z,7.78
2022-09-28T03:53:53.240Z,8.73
2022-09-28T03:54:10.655Z,7.82
2022-09-28T03:54:27.173Z,6.28
2022-09-28T03:54:48.324Z,9.32
2022-09-28T03:55:07.209Z,9.30
2022-09-28T03:55:24.466Z,9.02
2022-09-28T03:55:40.949Z,9.88
2022-09-28T03:56:02.063Z,9.57
2022-09-28T03:56:18.982Z,9.27
2022-09-28T03:56:36.633Z,9.02
2022-09-28T03:56:53.139Z,9.00
2022-09-28T03:57:10.135Z,7.55
2022-09-28T03:57:26.649Z,8.88
2022-09-28T03:57:43.224Z,9.02
2022-09-28T03:57:59.804Z,7.35
2022-09-28T03:58:18.684Z,6.82
2022-09-28T03:58:35.249Z,6.76
2022-09-28T03:58:51.957Z,6.63
2022-09-28T03:59:08.494Z,6.82
2022-09-28T03:59:27.268Z,7.53
2022-09-28T03:59:43.755Z,7.40
2022-09-28T04:00:00.515Z,6.25
2022-09-28T04:00:18.340Z,6.68
2022-09-28T04:00:34.986Z,7.57
2022-09-28T04:00:52.602Z,6.88
2022-09-28T04:01:16.532Z,6.65
2022-09-28T04:01:34.767Z,10.15
2022-09-28T04:01:51.739Z,8.95
2022-09-28T04:02:09.362Z,7.80
2022-09-28T04:02:25.890Z,8.23
2022-09-28T04:02:42.445Z,9.30
2022-09-28T04:02:58.972Z,8.55
2022-09-28T04:03:15.617Z,8.13
2022-09-28T04:03:32.229Z,9.90
2022-09-28T04:03:53.937Z,10.40
2022-09-28T04:04:11.422Z,7.93
2022-09-28T04:04:27.911Z,6.32
2022-09-28T04:04:44.419Z,9.07
2022-09-28T04:05:01.017Z,8.95
2022-09-28T04:05:18.548Z,6.97
2022-09-28T04:05:35.157Z,6.63
2022-09-28T04:05:52.423Z,7.28
2022-09-28T04:06:09.209Z,8.43
2022-09-28T04:06:26.946Z,8.70
2022-09-28T04:06:43.746Z,11.68
2022-09-28T04:07:00.397Z,8.95
2022-09-28T04:07:16.966Z,8.05
2022-09-28T04:07:33.658Z,7.13
2022-09-28T04:07:50.416Z,6.47
2022-09-28T04:08:06.917Z,8.07
2022-09-28T04:08:24.435Z,7.45
2022-09-28T04:08:41.041Z,6.90
2022-09-28T04:08:58.500Z,7.65
2022-09-28T04:09:16.171Z,8.05
2022-09-28T04:09:34.497Z,8.98
2022-09-28T04:09:51.229Z,7.45
2022-09-28T04:10:08.459Z,6.95
2022-09-28T04:10:25.443Z,7.43
2022-09-28T04:10:43.206Z,7.68
2022-09-28T04:11:00.361Z,7.93
2022-09-28T04:11:18.335Z,9.50
2022-09-28T04:11:53.150Z,8.65
2022-09-28T04:12:12.069Z,7.40
2022-09-28T04:12:28.656Z,7.43
2022-09-28T04:12:46.784Z,7.68
2022-09-28T04:13:04.480Z,7.32
2022-09-28T04:13:22.393Z,7.25
2022-09-28T04:13:39.106Z,7.85
2022-09-28T04:13:59.617Z,7.53
2022-09-28T04:14:16.135Z,7.50
2022-09-28T04:14:32.687Z,8.40
2022-09-28T04:14:49.189Z,7.70
2022-09-28T04:15:06.260Z,7.32